createdAt,value
2023-11-15T00:01:57.118Z,99661.31
2023-11-15T00:04:23.769Z,99667.69
2023-11-15T00:06:51.838Z,99668.88
2023-11-15T00:09:18.593Z,99666.22
2023-11-15T00:11:45.353Z,99672.13
2023-11-15T00:14:12.105Z,99681.28
2023-11-15T00:19:30.184Z,99682.56
2023-11-15T00:21:58.238Z,99679.50
2023-11-15T00:24:24.884Z,99689.97
2023-11-15T00:26:51.592Z,99685.81
2023-11-15T00:29:18.292Z,99691.44
2023-11-15T00:31:44.929Z,99689.84
2023-11-15T00:34:11.584Z,99692.97
2023-11-15T00:36:38.647Z,99695.22
2023-11-15T00:39:06.677Z,99700.50
2023-11-15T00:44:23.791Z,99704.63
2023-11-15T00:46:50.416Z,99704.00
2023-11-15T00:49:17.003Z,99709.97
2023-11-15T00:51:43.638Z,99707.69
2023-11-15T00:54:11.606Z,99719.59
2023-11-15T00:56:38.252Z,99715.69
2023-11-15T00:59:05.000Z,99719.59
2023-11-15T01:01:31.620Z,99717.47
2023-11-15T01:03:58.301Z,99711.91
2023-11-15T01:06:28.766Z,99709.97
2023-11-15T01:08:55.578Z,99720.59
2023-11-15T01:11:29.047Z,99719.41
2023-11-15T01:13:55.879Z,99718.69
2023-11-15T01:16:22.645Z,99725.63
2023-11-15T01:18:49.445Z,99729.63
2023-11-15T01:21:16.123Z,99728.34
2023-11-15T01:26:35.207Z,99726.25
2023-11-15T01:29:01.842Z,99740.94
2023-11-15T01:31:28.441Z,99743.00
2023-11-15T01:33:55.121Z,99743.22
2023-11-15T01:36:21.742Z,99745.47
2023-11-15T01:38:48.444Z,99742.22
2023-11-15T01:41:15.182Z,99749.16
2023-11-15T01:43:43.175Z,99748.25
2023-11-15T01:46:10.028Z,99761.06
2023-11-15T01:51:55.007Z,99764.84
2023-11-15T01:54:23.784Z,99759.16
2023-11-15T01:56:53.286Z,99764.28
2023-11-15T01:59:21.893Z,99764.78
2023-11-15T02:01:52.122Z,99763.44
2023-11-15T02:04:18.752Z,99764.53
2023-11-15T02:06:45.466Z,99764.53
2023-11-15T02:09:12.139Z,99769.50
2023-11-15T02:11:39.852Z,99763.81
2023-11-15T02:14:06.549Z,99775.38
2023-11-15T02:16:34.653Z,99776.31
2023-11-15T02:19:01.362Z,99776.78
2023-11-15T02:21:28.005Z,99778.13
2023-11-15T02:23:56.712Z,99776.44
2023-11-15T02:26:23.953Z,99778.88
2023-11-15T02:28:50.588Z,99777.44
2023-11-15T02:31:17.263Z,99776.59
2023-11-15T02:33:43.931Z,99775.22
2023-11-15T02:36:10.657Z,99778.59
2023-11-15T02:38:37.322Z,99777.34
2023-11-15T02:41:05.448Z,99784.19
2023-11-15T02:43:32.163Z,99787.66
2023-11-15T02:45:58.950Z,99781.69
2023-11-15T02:48:25.772Z,99787.38
2023-11-15T02:50:52.528Z,99786.63
2023-11-15T02:53:22.376Z,99788.78
2023-11-15T02:55:49.085Z,99793.97
2023-11-15T03:01:08.779Z,99797.31
2023-11-15T03:03:38.169Z,99794.88
2023-11-15T03:06:06.148Z,99792.53
2023-11-15T03:08:33.418Z,99800.66
2023-11-15T03:11:00.555Z,99801.31
2023-11-15T03:13:28.630Z,99795.97
2023-11-15T03:15:58.784Z,99793.47
2023-11-15T03:18:25.479Z,99802.66
2023-11-15T03:20:52.248Z,99797.22
2023-11-15T03:23:18.929Z,99803.63
2023-11-15T03:25:45.525Z,99806.72
2023-11-15T03:28:12.121Z,99803.03
2023-11-15T03:30:40.094Z,99814.94
2023-11-15T03:33:06.829Z,99817.16
2023-11-15T03:35:33.499Z,99819.66
2023-11-15T03:43:42.350Z,99829.03
2023-11-15T03:46:10.423Z,99820.56
2023-11-15T03:48:37.082Z,99822.63
2023-11-15T03:51:04.493Z,99823.94
2023-11-15T03:53:31.164Z,99825.28
2023-11-15T03:55:57.759Z,99820.13
2023-11-15T03:58:26.896Z,99820.31
2023-11-15T04:00:56.490Z,99824.19
2023-11-15T04:06:14.847Z,99836.41
2023-11-15T04:08:41.499Z,99845.69
2023-11-15T04:11:08.242Z,99848.75
2023-11-15T04:13:35.859Z,99847.50
2023-11-15T04:16:02.553Z,99848.41
2023-11-15T04:18:30.671Z,99854.06
2023-11-15T04:20:57.479Z,99851.63
2023-11-15T04:23:25.287Z,99847.84
2023-11-15T04:25:51.933Z,99858.72
2023-11-15T04:28:18.814Z,99854.78
2023-11-15T04:30:45.405Z,99854.28
2023-11-15T04:33:13.677Z,99859.16
2023-11-15T04:35:41.895Z,99860.88
2023-11-15T04:38:08.629Z,99860.53
2023-11-15T04:40:35.221Z,99867.09
2023-11-15T04:51:36.517Z,99874.75
2023-11-15T04:54:03.231Z,99883.41
2023-11-15T04:56:30.823Z,99878.97
2023-11-15T04:58:57.480Z,99878.63
2023-11-15T05:01:24.164Z,99890.22
2023-11-15T05:09:34.997Z,99881.97
2023-11-15T05:12:01.602Z,99889.75
2023-11-15T05:14:28.260Z,99888.88
2023-11-15T05:16:54.862Z,99893.69
2023-11-15T05:19:21.559Z,99897.16
2023-11-15T05:21:49.561Z,99889.56
2023-11-15T05:24:16.183Z,99890.78
2023-11-15T05:26:42.894Z,99894.66
2023-11-15T05:29:09.532Z,99896.44
2023-11-15T05:31:36.137Z,99896.22
2023-11-15T05:34:04.918Z,99899.50
2023-11-15T05:36:31.653Z,99895.63
2023-11-15T05:38:59.641Z,99901.69
2023-11-15T05:41:29.200Z,99892.47
2023-11-15T05:43:56.482Z,99895.44
2023-11-15T05:46:23.128Z,99905.38
2023-11-15T05:48:49.751Z,99900.81
2023-11-15T05:51:16.824Z,99919.88
2023-11-15T05:53:43.549Z,99920.34
2023-11-15T05:56:13.504Z,99916.69
2023-11-15T06:01:58.257Z,99911.78
2023-11-15T06:04:28.014Z,99910.38
2023-11-15T06:06:54.659Z,99909.44
2023-11-15T06:09:21.930Z,99912.63
2023-11-15T06:11:49.974Z,99916.03
2023-11-15T06:14:18.713Z,99915.50
2023-11-15T06:16:45.352Z,99911.38
2023-11-15T06:19:12.049Z,99916.06
2023-11-15T06:21:43.080Z,99924.09
2023-11-15T06:24:09.862Z,99918.94
2023-11-15T06:26:36.642Z,99921.84
2023-11-15T06:29:07.966Z,99939.94
2023-11-15T06:31:34.960Z,99938.22
2023-11-15T06:34:01.605Z,99938.63
2023-11-15T06:36:28.245Z,99944.81
2023-11-15T06:38:54.947Z,99939.81
2023-11-15T06:41:21.557Z,99945.75
2023-11-15T06:43:48.163Z,99958.63
2023-11-15T06:46:18.753Z,99944.63
2023-11-15T06:48:45.503Z,99957.06
2023-11-15T06:51:12.232Z,99962.19
2023-11-15T06:53:38.903Z,99957.38
2023-11-15T06:56:05.903Z,99958.44
2023-11-15T06:58:32.479Z,99956.63
2023-11-15T07:00:59.156Z,99964.44
2023-11-15T07:03:27.387Z,99966.66
2023-11-15T07:05:54.064Z,99959.34
2023-11-15T07:08:20.752Z,99964.81
2023-11-15T07:10:47.372Z,99966.94
2023-11-15T07:13:13.977Z,99961.06
2023-11-15T07:15:40.708Z,99963.22
2023-11-15T07:18:07.413Z,99973.94
2023-11-15T07:20:35.419Z,99976.44
2023-11-15T07:28:44.076Z,99975.81
2023-11-15T07:31:12.399Z,99985.88
2023-11-15T07:33:39.118Z,99992.31
2023-11-15T07:36:08.674Z,99990.53
2023-11-15T07:38:35.470Z,99997.69
2023-11-15T07:41:02.282Z,100006.53
2023-11-15T07:43:28.939Z,100008.13
2023-11-15T07:45:55.542Z,100007.84
2023-11-15T07:48:22.262Z,100013.38
2023-11-15T07:50:52.869Z,100015.38
2023-11-15T07:53:20.941Z,100019.63
2023-11-15T07:55:47.535Z,100022.88
2023-11-15T07:58:14.144Z,100013.81
2023-11-15T08:00:40.830Z,100018.09
2023-11-15T08:03:08.047Z,100021.38
2023-11-15T08:05:34.768Z,100020.25
2023-11-15T08:08:01.399Z,100028.31
2023-11-15T08:10:29.456Z,100023.69
2023-11-15T08:12:56.089Z,100027.59
2023-11-15T08:15:22.703Z,100027.84
2023-11-15T08:17:49.478Z,100033.47
2023-11-15T08:20:16.354Z,100042.53
2023-11-15T08:22:43.153Z,100050.66
2023-11-15T08:25:10.943Z,100051.59
2023-11-15T08:27:40.157Z,100047.22
2023-11-15T08:30:09.986Z,100051.72
2023-11-15T08:38:19.204Z,100048.72
2023-11-15T08:40:47.106Z,100048.34
2023-11-15T08:43:16.615Z,100054.81
2023-11-15T08:45:44.415Z,100064.56
2023-11-15T08:48:11.321Z,100062.81
2023-11-15T08:50:40.701Z,100061.63
2023-11-15T08:53:08.812Z,100077.66
2023-11-15T09:01:22.573Z,100082.63
2023-11-15T09:03:49.540Z,100079.41
2023-11-15T09:06:16.604Z,100087.63
2023-11-15T09:08:44.007Z,100084.50
2023-11-15T09:11:13.138Z,100084.00
2023-11-15T09:13:41.389Z,100083.72
2023-11-15T09:16:12.172Z,100092.03
2023-11-15T09:18:39.845Z,100097.19
2023-11-15T09:21:07.798Z,100098.03
2023-11-15T09:23:34.905Z,100102.25
2023-11-15T09:26:01.702Z,100093.94
2023-11-15T09:28:28.410Z,100109.34
2023-11-15T09:36:39.514Z,100093.44
2023-11-15T09:39:06.893Z,100098.44
2023-11-15T09:41:33.686Z,100106.44
2023-11-15T09:44:04.198Z,100105.31
2023-11-15T09:46:33.099Z,100101.56
2023-11-15T09:49:05.248Z,100091.97
2023-11-15T09:51:35.601Z,100105.19
2023-11-15T09:54:12.315Z,100111.44
2023-11-15T09:59:36.625Z,100110.66
2023-11-15T10:02:05.653Z,100117.03
2023-11-15T10:04:32.393Z,100110.88
2023-11-15T10:07:06.540Z,100125.34
2023-11-15T10:09:35.246Z,100116.72
2023-11-15T10:12:02.756Z,100118.13
2023-11-15T10:14:35.016Z,100114.78
2023-11-15T10:17:02.579Z,100121.72
2023-11-15T10:19:36.036Z,100126.03
2023-11-15T10:22:05.395Z,100120.19
2023-11-15T10:24:34.597Z,100121.25
2023-11-15T10:27:07.129Z,100130.22
2023-11-15T10:29:37.253Z,100121.25
2023-11-15T10:32:05.009Z,100139.06
2023-11-15T10:34:35.733Z,100134.72
2023-11-15T10:37:05.499Z,100145.41
2023-11-15T10:39:35.640Z,100138.72
2023-11-15T10:42:03.977Z,100147.97
2023-11-15T10:44:30.802Z,100146.00
2023-11-15T10:47:06.013Z,100142.31
2023-11-15T10:49:38.248Z,100154.41
2023-11-15T10:52:08.282Z,100151.16
2023-11-15T10:54:37.996Z,100156.47
2023-11-15T10:57:08.597Z,100175.25
2023-11-15T10:59:40.095Z,100176.00
2023-11-15T11:02:07.890Z,100175.72
2023-11-15T11:04:38.176Z,100163.81
2023-11-15T11:07:10.516Z,100174.75
2023-11-15T11:09:47.481Z,100175.72
2023-11-15T11:15:25.787Z,100191.59
2023-11-15T11:18:06.776Z,100176.75
2023-11-15T11:20:38.117Z,100180.03
2023-11-15T11:23:18.141Z,100183.34
2023-11-15T11:25:45.927Z,100191.47
2023-11-15T11:28:13.904Z,100187.94
2023-11-15T11:30:41.277Z,100200.75
2023-11-15T11:33:11.332Z,100193.38
2023-11-15T11:35:42.226Z,100201.41
2023-11-15T11:38:15.388Z,100209.66
2023-11-15T11:40:44.495Z,100213.72
2023-11-15T11:43:24.168Z,100211.44
2023-11-15T11:45:51.786Z,100222.03
2023-11-15T11:48:20.909Z,100219.44
2023-11-15T11:51:06.242Z,100210.78
2023-11-15T11:53:35.728Z,100222.19
2023-11-15T11:59:09.050Z,100230.44
2023-11-15T12:01:47.545Z,100234.53
2023-11-15T12:04:15.009Z,100233.00
2023-11-15T12:06:43.401Z,100235.91
2023-11-15T12:09:11.336Z,100235.56
2023-11-15T12:11:38.866Z,100233.94
2023-11-15T12:14:06.176Z,100233.63
2023-11-15T12:16:36.219Z,100235.09
2023-11-15T12:19:05.985Z,100242.25
2023-11-15T12:21:34.509Z,100244.75
2023-11-15T12:24:04.450Z,100256.31
2023-11-15T12:29:34.740Z,100250.19
2023-11-15T12:32:02.885Z,100250.97
2023-11-15T12:34:31.516Z,100267.81
2023-11-15T12:36:59.992Z,100271.41
2023-11-15T12:39:37.850Z,100269.59
2023-11-15T12:44:56.066Z,100272.47
2023-11-15T12:47:23.988Z,100270.31
2023-11-15T12:49:53.644Z,100280.13
2023-11-15T12:52:39.354Z,100277.50
2023-11-15T12:55:12.796Z,100294.09
2023-11-15T12:57:54.407Z,100287.53
2023-11-15T13:00:31.815Z,100287.03
2023-11-15T13:02:58.692Z,100292.03
2023-11-15T13:05:28.913Z,100288.34
2023-11-15T13:10:50.877Z,100302.41
2023-11-15T13:13:18.382Z,100288.66
2023-11-15T13:15:45.152Z,100288.34
2023-11-15T13:18:11.875Z,100286.94
2023-11-15T13:20:39.613Z,100289.44
2023-11-15T13:23:06.801Z,100296.72
2023-11-15T13:28:28.790Z,100292.56
2023-11-15T13:30:57.060Z,100295.25
2023-11-15T13:33:24.602Z,100299.28
2023-11-15T13:35:51.548Z,100304.78
2023-11-15T13:38:18.267Z,100295.47
2023-11-15T13:40:48.416Z,100304.09
2023-11-15T13:43:15.905Z,100303.19
2023-11-15T13:45:45.512Z,100301.09
2023-11-15T13:48:15.539Z,100293.53
2023-11-15T13:50:45.050Z,100302.00
2023-11-15T13:53:16.803Z,100305.19
2023-11-15T13:55:43.591Z,100310.53
2023-11-15T13:58:10.927Z,100296.25
2023-11-15T14:00:38.555Z,100308.97
2023-11-15T14:03:07.590Z,100305.53
2023-11-15T14:05:36.602Z,100294.09
2023-11-15T14:08:04.797Z,100303.34
2023-11-15T14:10:35.020Z,100293.78
2023-11-15T14:13:06.800Z,100303.66
2023-11-15T14:15:34.867Z,100315.34
2023-11-15T14:18:02.188Z,100314.25
2023-11-15T14:20:35.403Z,100324.19
2023-11-15T14:23:03.917Z,100321.16
2023-11-15T14:25:33.212Z,100319.34
2023-11-15T14:28:07.354Z,100318.81
2023-11-15T14:30:34.940Z,100314.09
2023-11-15T14:33:03.074Z,100318.53
2023-11-15T14:35:32.293Z,100321.97
2023-11-15T14:37:59.592Z,100319.06
2023-11-15T14:40:27.626Z,100317.84
2023-11-15T14:42:55.243Z,100331.81
2023-11-15T14:45:23.400Z,100336.41
2023-11-15T14:47:51.027Z,100340.00
2023-11-15T14:50:22.708Z,100340.09
2023-11-15T14:52:50.914Z,100346.25
2023-11-15T14:55:19.024Z,100343.94
2023-11-15T14:57:48.931Z,100344.63
2023-11-15T15:00:18.237Z,100344.19
2023-11-15T15:02:47.163Z,100339.06
2023-11-15T15:05:15.129Z,100349.34
2023-11-15T15:07:42.830Z,100345.97
2023-11-15T15:10:15.081Z,100353.00
2023-11-15T15:12:43.520Z,100347.69
2023-11-15T15:15:11.934Z,100345.28
2023-11-15T15:20:32.643Z,100345.84
2023-11-15T15:22:59.715Z,100349.06
2023-11-15T15:25:28.672Z,100348.38
2023-11-15T15:27:56.510Z,100345.00
2023-11-15T15:30:23.827Z,100341.75
2023-11-15T15:32:51.548Z,100354.13
2023-11-15T15:35:22.644Z,100345.25
2023-11-15T15:37:50.403Z,100351.28
2023-11-15T15:40:18.034Z,100355.75
2023-11-15T15:45:39.160Z,100364.00
2023-11-15T15:48:07.174Z,100362.53
2023-11-15T15:50:35.939Z,100364.25
2023-11-15T15:53:03.527Z,100371.09
2023-11-15T15:55:30.932Z,100367.53
2023-11-15T15:57:59.041Z,100367.47
2023-11-15T16:00:26.458Z,100364.59
2023-11-15T16:02:55.898Z,100369.09
2023-11-15T16:05:23.886Z,100371.47
2023-11-15T16:07:51.404Z,100373.31
2023-11-15T16:13:12.758Z,100367.94
2023-11-15T16:15:40.701Z,100374.22
2023-11-15T16:18:08.451Z,100378.41
2023-11-15T16:20:38.903Z,100379.69
2023-11-15T16:23:06.385Z,100380.44
2023-11-15T16:25:40.868Z,100385.47
2023-11-15T16:28:08.875Z,100385.88
2023-11-15T16:30:37.673Z,100380.81
2023-11-15T16:33:05.323Z,100391.09
2023-11-15T16:35:32.067Z,100393.50
2023-11-15T16:37:59.735Z,100389.53
2023-11-15T16:40:27.062Z,100385.44
2023-11-15T16:42:54.994Z,100387.31
2023-11-15T16:45:22.544Z,100390.84
2023-11-15T16:47:51.504Z,100393.59
2023-11-15T16:50:19.706Z,100399.53
2023-11-15T16:52:47.007Z,100401.28
2023-11-15T16:55:14.334Z,100401.38
2023-11-15T16:57:41.663Z,100398.13
2023-11-15T17:00:10.136Z,100407.88
2023-11-15T17:02:36.874Z,100402.47
2023-11-15T17:05:06.564Z,100400.22
2023-11-15T17:07:34.430Z,100405.44
2023-11-15T17:10:12.360Z,100404.34
2023-11-15T17:12:39.705Z,100405.34
2023-11-15T17:15:08.334Z,100411.22
2023-11-15T17:17:35.647Z,100406.06
2023-11-15T17:20:03.725Z,100413.44
2023-11-15T17:22:32.978Z,100425.06
2023-11-15T17:25:00.712Z,100430.22
2023-11-15T17:36:07.966Z,100428.31
2023-11-15T17:38:36.547Z,100421.03
2023-11-15T17:41:04.713Z,100419.38
2023-11-15T17:43:36.432Z,100422.47
2023-11-15T17:46:04.536Z,100422.66
2023-11-15T17:48:32.092Z,100426.13
2023-11-15T17:51:00.188Z,100415.34
2023-11-15T17:53:28.377Z,100419.56
2023-11-15T17:55:56.881Z,100415.47
2023-11-15T17:58:25.113Z,100421.25
2023-11-15T18:00:52.393Z,100417.38
2023-11-15T18:03:19.933Z,100424.81
2023-11-15T18:05:47.574Z,100424.50
2023-11-15T18:08:17.994Z,100423.97
2023-11-15T18:10:45.423Z,100421.88
2023-11-15T18:13:16.473Z,100431.28
2023-11-15T18:15:43.186Z,100430.34
2023-11-15T18:18:10.696Z,100431.16
2023-11-15T18:20:38.501Z,100435.19
2023-11-15T18:23:06.528Z,100436.03
2023-11-15T18:25:34.302Z,100431.09
2023-11-15T18:30:54.740Z,100438.56
2023-11-15T18:33:22.323Z,100434.19
2023-11-15T18:35:50.172Z,100432.72
2023-11-15T18:38:17.417Z,100431.66
2023-11-15T18:40:47.691Z,100435.41
2023-11-15T18:43:16.494Z,100444.50
2023-11-15T18:45:44.119Z,100428.84
2023-11-15T18:48:13.033Z,100434.84
2023-11-15T18:50:41.190Z,100432.28
2023-11-15T18:53:08.558Z,100440.78
2023-11-15T18:55:36.553Z,100444.78
2023-11-15T18:58:04.113Z,100435.97
2023-11-15T19:00:31.465Z,100440.38
2023-11-15T19:03:02.462Z,100438.91
2023-11-15T19:05:35.049Z,100437.59
2023-11-15T19:08:02.351Z,100433.59
2023-11-15T19:10:31.237Z,100440.97
2023-11-15T19:12:59.372Z,100445.81
2023-11-15T19:15:27.211Z,100442.03
2023-11-15T19:17:55.480Z,100435.47
2023-11-15T19:20:26.480Z,100433.78
2023-11-15T19:22:55.204Z,100437.38
2023-11-15T19:25:22.451Z,100436.06
2023-11-15T19:27:50.912Z,100423.41
2023-11-15T19:30:18.786Z,100433.75
2023-11-15T19:32:46.395Z,100426.19
2023-11-15T19:35:13.973Z,100421.38
2023-11-15T19:37:41.474Z,100416.31
2023-11-15T19:40:11.731Z,100426.91
2023-11-15T19:45:31.185Z,100425.22
2023-11-15T19:47:59.083Z,100423.91
2023-11-15T19:50:31.625Z,100428.75
2023-11-15T19:52:59.064Z,100426.78
2023-11-15T19:55:31.745Z,100418.78
2023-11-15T20:00:50.255Z,100419.41
2023-11-15T20:03:17.794Z,100421.59
2023-11-15T20:08:39.985Z,100426.22
2023-11-15T20:11:10.245Z,100434.44
2023-11-15T20:13:37.360Z,100427.91
2023-11-15T20:16:06.404Z,100426.00
2023-11-15T20:18:33.796Z,100418.84
2023-11-15T20:21:00.721Z,100419.91
2023-11-15T20:23:28.290Z,100415.09
2023-11-15T20:25:55.541Z,100421.16
2023-11-15T20:28:30.610Z,100423.72
2023-11-15T20:31:03.659Z,100433.84
2023-11-15T20:33:31.662Z,100434.91
2023-11-15T20:36:02.817Z,100433.00
2023-11-15T20:38:30.963Z,100441.47
2023-11-15T20:41:00.874Z,100446.09
2023-11-15T20:43:30.223Z,100440.63
2023-11-15T20:46:10.178Z,100446.97
2023-11-15T20:48:44.773Z,100444.63
2023-11-15T20:51:12.313Z,100446.72
2023-11-15T20:53:40.776Z,100447.75
2023-11-15T20:56:08.834Z,100447.34
2023-11-15T20:58:38.753Z,100442.09
2023-11-15T21:01:06.291Z,100438.72
2023-11-15T21:03:34.096Z,100444.19
2023-11-15T21:06:02.036Z,100443.34
2023-11-15T21:08:29.159Z,100454.09
2023-11-15T21:10:59.425Z,100445.28
2023-11-15T21:16:19.840Z,100431.59
2023-11-15T21:21:37.633Z,100442.50
2023-11-15T21:24:06.340Z,100436.81
2023-11-15T21:26:33.009Z,100443.31
2023-11-15T21:31:53.602Z,100434.09
2023-11-15T21:34:20.897Z,100440.63
2023-11-15T21:36:48.442Z,100437.44
2023-11-15T21:39:16.291Z,100437.22
2023-11-15T21:41:44.445Z,100436.19
2023-11-15T21:44:11.689Z,100432.63
2023-11-15T21:46:39.132Z,100435.38
2023-11-15T21:49:08.261Z,100431.78
2023-11-15T21:51:37.677Z,100433.25
2023-11-15T21:54:07.824Z,100429.47
2023-11-15T21:56:35.180Z,100428.41
2023-11-15T21:59:02.637Z,100433.47
2023-11-15T22:01:30.556Z,100426.75
2023-11-15T22:03:58.217Z,100430.53
2023-11-15T22:06:27.356Z,100433.25
2023-11-15T22:08:54.645Z,100439.16
2023-11-15T22:11:22.144Z,100434.50
2023-11-15T22:19:33.903Z,100432.84
2023-11-15T22:22:02.168Z,100437.25
2023-11-15T22:24:31.836Z,100430.94
2023-11-15T22:26:59.418Z,100421.88
2023-11-15T22:29:26.721Z,100417.66
2023-11-15T22:31:54.169Z,100426.94
2023-11-15T22:34:25.376Z,100425.44
2023-11-15T22:36:52.919Z,100419.75
2023-11-15T22:39:21.662Z,100420.16
2023-11-15T22:44:40.581Z,100420.34
2023-11-15T22:47:08.230Z,100413.00
2023-11-15T22:56:35.678Z,100419.28
2023-11-15T22:59:03.133Z,100423.28
2023-11-15T23:01:30.429Z,100425.56
2023-11-15T23:09:43.460Z,100423.44
2023-11-15T23:12:13.559Z,100425.97
2023-11-15T23:14:41.293Z,100429.75
2023-11-15T23:17:08.855Z,100432.03
2023-11-15T23:19:39.253Z,100422.56
2023-11-15T23:22:06.607Z,100426.97
2023-11-15T23:24:37.694Z,100416.06
2023-11-15T23:27:05.686Z,100409.97
2023-11-15T23:29:34.480Z,100402.81
2023-11-15T23:32:02.364Z,100405.53
2023-11-15T23:34:29.789Z,100411.38
2023-11-15T23:36:57.157Z,100416.84
2023-11-15T23:39:28.775Z,100410.97
2023-11-15T23:41:56.812Z,100409.88
2023-11-15T23:44:27.499Z,100412.38
2023-11-15T23:46:56.513Z,100405.03
2023-11-15T23:49:24.041Z,100402.09
2023-11-15T23:57:33.125Z,100395.78
